createdAt,value
2017-06-05T00:01:53.531Z,16.80
2017-06-05T00:04:21.052Z,16.80
2017-06-05T00:06:48.554Z,16.80
2017-06-05T00:09:16.079Z,16.80
2017-06-05T00:11:43.588Z,16.80
2017-06-05T00:14:12.021Z,16.80
2017-06-05T00:16:39.517Z,16.80
2017-06-05T00:19:07.222Z,16.80
2017-06-05T00:21:34.732Z,16.90
2017-06-05T00:24:02.234Z,17.00
2017-06-05T00:26:29.956Z,17.00
2017-06-05T00:28:57.476Z,17.10
2017-06-05T00:31:24.971Z,17.10
2017-06-05T00:33:52.485Z,17.20
2017-06-05T00:36:20.026Z,17.20
2017-06-05T00:38:47.570Z,17.30
2017-06-05T00:41:15.848Z,17.20
2017-06-05T00:43:43.433Z,17.20
2017-06-05T00:46:10.936Z,17.20
2017-06-05T00:48:38.453Z,17.20
2017-06-05T00:51:05.977Z,17.20
2017-06-05T00:53:33.508Z,17.20
2017-06-05T00:56:01.090Z,16.90
2017-06-05T00:58:28.579Z,16.80
2017-06-05T01:00:56.134Z,16.70
2017-06-05T01:03:23.763Z,16.80
2017-06-05T01:05:51.586Z,16.80
2017-06-05T01:08:19.098Z,16.80
2017-06-05T01:10:46.627Z,16.90
2017-06-05T01:13:14.176Z,16.90
2017-06-05T01:15:41.715Z,16.90
2017-06-05T01:18:09.235Z,17.00
2017-06-05T01:20:36.739Z,17.00
2017-06-05T01:23:04.271Z,17.00
2017-06-05T01:25:31.785Z,17.00
2017-06-05T01:27:59.294Z,17.10
2017-06-05T01:30:27.164Z,17.10
2017-06-05T01:32:54.669Z,17.20
2017-06-05T01:35:22.390Z,17.20
2017-06-05T01:37:49.898Z,17.20
2017-06-05T01:40:17.425Z,17.10
2017-06-05T01:42:44.943Z,17.20
2017-06-05T01:45:13.200Z,17.20
2017-06-05T01:47:40.709Z,17.20
2017-06-05T01:50:08.219Z,17.30
2017-06-05T01:52:36.562Z,17.30
2017-06-05T01:55:04.057Z,17.30
2017-06-05T01:57:31.743Z,17.20
2017-06-05T02:00:00.027Z,17.30
2017-06-05T02:02:27.549Z,17.30
2017-06-05T02:04:55.081Z,17.30
2017-06-05T02:07:22.618Z,17.30
2017-06-05T02:09:50.119Z,17.30
2017-06-05T02:12:17.778Z,17.20
2017-06-05T02:14:45.290Z,17.20
2017-06-05T02:17:12.803Z,17.10
2017-06-05T02:19:40.300Z,17.10
2017-06-05T02:22:08.571Z,17.00
2017-06-05T02:24:36.870Z,17.00
2017-06-05T02:27:04.397Z,17.00
2017-06-05T02:29:31.930Z,17.00
2017-06-05T02:31:59.424Z,16.90
2017-06-05T02:34:26.927Z,17.00
2017-06-05T02:36:54.650Z,17.00
2017-06-05T02:39:22.151Z,16.80
2017-06-05T02:41:49.861Z,16.80
2017-06-05T02:44:18.175Z,16.90
2017-06-05T02:46:45.700Z,16.90
2017-06-05T02:49:13.187Z,17.00
2017-06-05T02:51:40.731Z,16.90
2017-06-05T02:54:09.004Z,16.90
2017-06-05T02:56:37.312Z,17.00
2017-06-05T02:59:04.818Z,16.90
2017-06-05T03:01:32.341Z,16.90
2017-06-05T03:03:59.841Z,16.90
2017-06-05T03:06:27.341Z,16.90
2017-06-05T03:08:54.855Z,16.80
2017-06-05T03:11:22.344Z,16.80
2017-06-05T03:13:49.873Z,16.80
2017-06-05T03:16:17.385Z,16.80
2017-06-05T03:18:44.893Z,16.90
2017-06-05T03:21:12.428Z,16.90
2017-06-05T03:23:39.935Z,16.90
2017-06-05T03:26:08.240Z,17.10
2017-06-05T03:28:35.745Z,17.10
2017-06-05T03:31:03.320Z,17.10
2017-06-05T03:33:31.602Z,17.20
2017-06-05T03:35:59.894Z,17.10
2017-06-05T03:38:27.411Z,17.10
2017-06-05T03:40:54.903Z,17.10
2017-06-05T03:43:22.415Z,17.10
2017-06-05T04:03:09.007Z,17.00
2017-06-05T04:05:36.626Z,17.00
2017-06-05T04:08:04.172Z,16.90
2017-06-05T04:10:31.695Z,16.90
2017-06-05T04:12:59.200Z,16.80
2017-06-05T04:15:26.736Z,16.80
2017-06-05T04:17:54.287Z,16.80
2017-06-05T04:20:21.789Z,16.80
2017-06-05T04:22:49.311Z,16.70
2017-06-05T04:25:16.835Z,16.70
2017-06-05T04:27:44.475Z,16.80
2017-06-05T04:30:12.740Z,16.80
2017-06-05T04:32:40.242Z,16.80
2017-06-05T04:35:07.745Z,16.80
2017-06-05T04:37:35.250Z,16.70
2017-06-05T04:40:02.753Z,16.60
2017-06-05T04:42:30.272Z,16.60
2017-06-05T04:44:57.836Z,16.60
2017-06-05T04:47:25.354Z,16.60
2017-06-05T04:49:52.843Z,16.60
2017-06-05T04:52:20.417Z,16.70
2017-06-05T04:54:47.957Z,16.80
2017-06-05T04:57:16.237Z,16.90
2017-06-05T04:59:44.553Z,17.00
2017-06-05T05:02:12.106Z,17.00
2017-06-05T05:04:39.601Z,17.00
2017-06-05T05:07:07.093Z,17.20
2017-06-05T05:09:35.371Z,17.50
2017-06-05T05:12:03.771Z,17.50
2017-06-05T05:14:31.328Z,17.50
2017-06-05T05:16:58.839Z,17.60
2017-06-05T05:19:26.334Z,17.60
2017-06-05T05:21:53.908Z,17.70
2017-06-05T05:24:21.414Z,17.70
2017-06-05T05:26:48.932Z,17.70
2017-06-05T05:29:16.437Z,17.80
2017-06-05T05:31:43.934Z,17.80
2017-06-05T05:34:11.467Z,17.80
2017-06-05T05:36:38.975Z,17.70
2017-06-05T05:39:06.800Z,17.70
2017-06-05T05:41:34.289Z,17.70
2017-06-05T05:44:01.798Z,17.70
2017-06-05T05:46:29.618Z,17.70
2017-06-05T05:48:57.116Z,17.60
2017-06-05T05:51:24.696Z,17.60
2017-06-05T05:53:52.201Z,17.80
2017-06-05T05:56:19.703Z,17.70
2017-06-05T05:58:47.209Z,17.70
2017-06-05T06:01:14.711Z,17.80
2017-06-05T06:03:42.216Z,17.80
2017-06-05T06:06:09.790Z,17.80
2017-06-05T06:08:37.312Z,17.80
2017-06-05T06:11:04.817Z,17.80
2017-06-05T06:13:32.318Z,17.70
2017-06-05T06:15:59.976Z,17.80
2017-06-05T06:18:27.487Z,17.90
2017-06-05T06:20:55.007Z,18.00
2017-06-05T06:23:22.532Z,18.00
2017-06-05T06:25:50.007Z,18.00
2017-06-05T06:28:17.511Z,18.10
2017-06-05T06:30:45.048Z,18.20
2017-06-05T06:33:12.580Z,18.30
2017-06-05T06:35:40.081Z,18.30
2017-06-05T06:38:07.625Z,18.20
2017-06-05T06:40:35.135Z,18.20
2017-06-05T06:43:02.640Z,18.40
2017-06-05T06:45:30.951Z,18.50
2017-06-05T06:47:58.502Z,18.50
2017-06-05T06:50:26.042Z,18.50
2017-06-05T06:52:54.398Z,18.80
2017-06-05T06:55:22.029Z,18.80
2017-06-05T06:57:49.871Z,19.00
2017-06-05T07:00:17.394Z,18.90
2017-06-05T07:02:44.881Z,19.00
2017-06-05T07:05:12.442Z,19.10
2017-06-05T07:07:39.949Z,19.10
2017-06-05T07:10:07.436Z,19.10
2017-06-05T07:12:34.955Z,19.10
2017-06-05T07:15:02.530Z,19.20
2017-06-05T07:17:30.066Z,19.20
2017-06-05T07:19:57.598Z,19.00
2017-06-05T07:22:25.938Z,18.80
2017-06-05T07:24:53.473Z,18.80
2017-06-05T07:27:21.005Z,18.90
2017-06-05T07:29:48.510Z,18.90
2017-06-05T07:32:16.078Z,19.00
2017-06-05T07:34:43.901Z,18.90
2017-06-05T07:37:11.409Z,19.00
2017-06-05T07:39:38.953Z,19.20
2017-06-05T07:42:06.531Z,19.40
2017-06-05T07:44:34.040Z,19.30
2017-06-05T07:47:01.570Z,19.40
2017-06-05T07:49:29.104Z,19.50
2017-06-05T07:51:56.629Z,19.70
2017-06-05T07:54:24.149Z,19.60
2017-06-05T07:56:51.667Z,19.70
2017-06-05T07:59:19.170Z,19.70
2017-06-05T08:01:47.462Z,19.70
2017-06-05T08:04:14.976Z,19.60
2017-06-05T08:06:42.491Z,19.60
2017-06-05T08:09:11.525Z,19.60
2017-06-05T08:11:40.808Z,19.70
2017-06-05T08:14:09.568Z,19.70
2017-06-05T08:16:38.277Z,19.60
2017-06-05T08:19:07.251Z,19.50
2017-06-05T08:21:35.861Z,19.50
2017-06-05T08:24:03.390Z,19.50
2017-06-05T08:26:32.202Z,19.40
2017-06-05T08:29:01.068Z,19.30
2017-06-05T08:31:28.575Z,19.30
2017-06-05T08:33:57.195Z,19.40
2017-06-05T08:36:24.723Z,19.40
2017-06-05T08:38:52.325Z,19.50
2017-06-05T08:41:21.142Z,19.60
2017-06-05T08:43:49.258Z,19.50
2017-06-05T08:46:18.237Z,19.50
2017-06-05T08:48:47.166Z,19.40
2017-06-05T08:51:15.431Z,19.60
2017-06-05T08:53:43.952Z,19.80
2017-06-05T08:56:11.509Z,19.70
2017-06-05T08:58:39.005Z,19.90
2017-06-05T09:01:06.695Z,20.10
2017-06-05T09:03:34.996Z,20.40
2017-06-05T09:23:25.062Z,20.60
2017-06-05T09:25:52.925Z,20.50
2017-06-05T09:28:20.457Z,20.50
2017-06-05T09:30:47.977Z,20.60
2017-06-05T09:33:15.648Z,20.80
2017-06-05T09:35:43.159Z,21.00
2017-06-05T09:38:10.711Z,21.10
2017-06-05T09:40:38.274Z,21.40
2017-06-05T09:43:05.790Z,21.30
2017-06-05T09:45:33.338Z,21.50
2017-06-05T09:48:00.856Z,21.60
2017-06-05T09:50:29.052Z,21.50
2017-06-05T09:52:56.549Z,21.80
2017-06-05T09:55:24.404Z,22.10
2017-06-05T09:57:52.002Z,22.30
2017-06-05T10:00:19.514Z,22.40
2017-06-05T10:02:47.082Z,22.60
2017-06-05T10:05:14.603Z,22.70
2017-06-05T10:07:42.143Z,22.90
2017-06-05T10:10:09.829Z,23.00
2017-06-05T10:12:37.368Z,23.00
2017-06-05T10:15:04.913Z,23.00
2017-06-05T10:17:32.448Z,23.10
2017-06-05T10:20:00.032Z,23.00
2017-06-05T10:22:27.531Z,22.70
2017-06-05T10:24:55.051Z,22.60
2017-06-05T10:27:22.591Z,22.60
2017-06-05T10:29:50.188Z,22.40
2017-06-05T10:32:17.726Z,22.60
2017-06-05T10:34:45.237Z,22.60
2017-06-05T10:37:12.811Z,22.90
2017-06-05T10:39:40.313Z,22.90
2017-06-05T10:42:08.669Z,23.00
2017-06-05T10:44:36.178Z,23.50
2017-06-05T10:47:03.704Z,24.20
2017-06-05T10:49:32.164Z,24.60
2017-06-05T10:51:59.871Z,24.90
2017-06-05T10:54:27.396Z,25.20
2017-06-05T10:56:54.900Z,26.00
2017-06-05T10:59:22.847Z,26.80
2017-06-05T11:01:50.359Z,26.70
2017-06-05T11:04:18.643Z,25.80
2017-06-05T11:06:46.168Z,25.80
2017-06-05T11:09:13.679Z,26.00
2017-06-05T11:11:41.209Z,25.70
2017-06-05T11:14:09.483Z,26.50
2017-06-05T11:16:37.818Z,26.40
2017-06-05T11:19:05.342Z,26.40
2017-06-05T11:21:32.937Z,26.00
2017-06-05T11:24:00.507Z,25.90
2017-06-05T11:26:28.025Z,25.40
2017-06-05T11:28:55.524Z,25.60
2017-06-05T11:31:23.044Z,27.10
2017-06-05T11:33:50.568Z,27.70
2017-06-05T11:36:18.091Z,27.50
2017-06-05T11:38:45.626Z,27.40
2017-06-05T11:41:13.142Z,27.40
2017-06-05T11:43:41.493Z,27.20
2017-06-05T11:46:09.302Z,26.90
2017-06-05T11:48:37.698Z,27.20
2017-06-05T11:51:05.299Z,27.20
2017-06-05T11:53:32.844Z,26.80
2017-06-05T11:56:00.350Z,27.10
2017-06-05T11:58:27.873Z,27.50
2017-06-05T12:00:55.382Z,28.30
2017-06-05T12:03:22.910Z,29.40
2017-06-05T12:05:50.418Z,29.80
2017-06-05T12:08:17.967Z,29.90
2017-06-05T12:10:45.756Z,30.40
2017-06-05T12:13:13.266Z,30.40
2017-06-05T12:15:40.797Z,30.30
2017-06-05T12:18:08.316Z,30.90
2017-06-05T12:20:37.101Z,30.50
2017-06-05T12:23:05.508Z,30.10
2017-06-05T12:25:33.061Z,30.00
2017-06-05T12:28:00.603Z,29.40
2017-06-05T12:30:28.139Z,29.50
2017-06-05T12:32:55.708Z,30.30
2017-06-05T12:35:24.074Z,30.90
2017-06-05T12:37:51.590Z,30.90
2017-06-05T12:40:19.087Z,31.10
2017-06-05T12:42:46.709Z,31.50
2017-06-05T12:45:14.207Z,32.00
2017-06-05T12:47:41.765Z,32.10
2017-06-05T12:50:09.290Z,32.00
2017-06-05T12:52:36.808Z,31.70
2017-06-05T12:55:05.227Z,31.30
2017-06-05T12:57:32.743Z,31.30
2017-06-05T13:00:01.118Z,30.90
2017-06-05T13:02:28.612Z,30.90
2017-06-05T13:04:56.276Z,30.30
2017-06-05T13:07:23.787Z,29.50
2017-06-05T13:09:51.365Z,29.10
2017-06-05T13:12:18.951Z,28.60
2017-06-05T13:14:46.467Z,28.60
2017-06-05T13:17:13.952Z,28.50
2017-06-05T13:19:41.494Z,28.00
2017-06-05T13:22:08.994Z,27.40
2017-06-05T13:24:36.591Z,27.30
2017-06-05T13:27:04.193Z,27.00
2017-06-05T13:29:31.863Z,26.70
2017-06-05T13:31:59.505Z,26.80
2017-06-05T13:34:27.132Z,26.50
2017-06-05T13:36:54.674Z,26.40
2017-06-05T13:39:23.425Z,26.40
2017-06-05T13:41:51.792Z,26.70
2017-06-05T13:44:19.305Z,26.70
2017-06-05T13:46:46.825Z,27.10
2017-06-05T13:49:16.614Z,27.10
2017-06-05T13:51:45.580Z,27.10
2017-06-05T13:54:14.535Z,27.20
2017-06-05T13:56:43.489Z,27.00
2017-06-05T13:59:12.749Z,27.10
2017-06-05T14:01:41.503Z,27.00
2017-06-05T14:04:10.432Z,27.20
2017-06-05T14:06:39.425Z,27.50
2017-06-05T14:09:08.313Z,27.70
2017-06-05T14:11:37.296Z,27.60
2017-06-05T14:14:06.205Z,27.20
2017-06-05T14:16:35.188Z,27.10
2017-06-05T14:19:04.169Z,27.30
2017-06-05T14:21:35.412Z,27.00
2017-06-05T14:24:05.225Z,26.80
2017-06-05T14:26:32.735Z,26.80
2017-06-05T14:29:00.320Z,26.80
2017-06-05T14:31:27.823Z,26.90
2017-06-05T14:33:55.344Z,27.10
2017-06-05T14:36:22.870Z,27.30
2017-06-05T14:38:50.381Z,27.10
2017-06-05T14:41:17.907Z,27.30
2017-06-05T14:43:45.434Z,27.00
2017-06-05T14:46:12.938Z,27.10
2017-06-05T14:48:40.474Z,27.00
2017-06-05T14:51:07.976Z,27.00
2017-06-05T14:53:35.543Z,26.90
2017-06-05T14:56:03.078Z,26.10
2017-06-05T14:58:30.595Z,26.10
2017-06-05T15:00:58.094Z,26.20
2017-06-05T15:03:25.606Z,26.00
2017-06-05T15:05:53.124Z,26.10
2017-06-05T15:08:20.663Z,25.90
2017-06-05T15:10:48.204Z,25.60
2017-06-05T15:13:15.721Z,25.50
2017-06-05T15:15:43.215Z,24.90
2017-06-05T15:18:10.728Z,25.00
2017-06-05T15:20:38.284Z,25.10
2017-06-05T15:23:06.603Z,25.00
2017-06-05T15:25:34.141Z,25.00
2017-06-05T15:28:01.684Z,24.90
2017-06-05T15:30:29.202Z,24.50
2017-06-05T15:32:56.728Z,24.40
2017-06-05T15:35:24.344Z,24.50
2017-06-05T15:37:52.129Z,24.50
2017-06-05T15:40:23.301Z,24.40
2017-06-05T15:42:53.221Z,24.40
2017-06-05T15:45:24.123Z,24.30
2017-06-05T15:47:57.092Z,24.20
2017-06-05T15:50:28.398Z,24.20
2017-06-05T15:52:58.435Z,24.20
2017-06-05T15:55:28.807Z,24.20
2017-06-05T15:57:59.089Z,24.20
2017-06-05T16:00:27.971Z,24.20
2017-06-05T16:02:57.846Z,24.00
2017-06-05T16:05:28.339Z,24.10
2017-06-05T16:07:58.885Z,24.10
2017-06-05T16:10:31.144Z,24.10
2017-06-05T16:13:01.498Z,24.10
2017-06-05T16:15:31.741Z,24.10
2017-06-05T16:18:02.124Z,23.90
2017-06-05T16:20:35.129Z,23.80
2017-06-05T16:23:05.945Z,23.80
2017-06-05T16:25:36.570Z,23.80
2017-06-05T16:28:06.731Z,23.80
2017-06-05T16:30:36.928Z,23.60
2017-06-05T16:33:08.316Z,23.50
2017-06-05T16:35:37.951Z,23.50
2017-06-05T16:38:09.358Z,23.40
2017-06-05T16:40:40.094Z,23.40
2017-06-05T16:43:10.377Z,23.20
2017-06-05T16:45:40.614Z,22.70
2017-06-05T16:48:12.219Z,21.20
2017-06-05T16:50:42.341Z,21.20
2017-06-05T16:53:12.865Z,19.90
2017-06-05T16:55:43.364Z,18.40
2017-06-05T16:58:14.504Z,17.00
2017-06-05T17:00:46.001Z,16.30
2017-06-05T17:03:17.372Z,16.10
2017-06-05T17:05:47.924Z,16.00
2017-06-05T17:08:17.098Z,16.10
2017-06-05T17:10:46.301Z,16.10
2017-06-05T17:13:16.536Z,16.20
2017-06-05T17:15:46.840Z,16.40
2017-06-05T17:18:16.774Z,16.50
2017-06-05T17:20:48.263Z,16.60
2017-06-05T17:23:17.953Z,16.80
2017-06-05T17:25:47.907Z,16.80
2017-06-05T17:28:18.335Z,16.80
2017-06-05T17:30:48.670Z,16.90
2017-06-05T17:33:19.144Z,16.90
2017-06-05T17:35:48.796Z,16.80
2017-06-05T17:38:17.493Z,16.70
2017-06-05T17:40:51.831Z,16.70
2017-06-05T17:43:21.990Z,16.70
2017-06-05T17:45:52.917Z,16.70
2017-06-05T17:48:23.382Z,16.50
2017-06-05T17:50:53.811Z,16.40
2017-06-05T17:53:24.091Z,16.30
2017-06-05T17:55:54.512Z,16.30
2017-06-05T17:58:26.934Z,16.20
2017-06-05T18:00:56.965Z,16.20
2017-06-05T18:03:27.208Z,16.30
2017-06-05T18:05:57.748Z,16.50
2017-06-05T18:08:28.206Z,16.70
2017-06-05T18:10:59.408Z,17.00
2017-06-05T18:13:29.701Z,16.90
2017-06-05T18:15:59.621Z,17.10
2017-06-05T18:18:31.361Z,17.00
2017-06-05T18:21:02.149Z,17.10
2017-06-05T18:23:31.588Z,17.10
2017-06-05T18:26:01.356Z,17.10
2017-06-05T18:28:31.497Z,17.00
2017-06-05T18:31:01.174Z,17.10
2017-06-05T18:33:31.277Z,17.20
2017-06-05T18:36:01.082Z,17.40
2017-06-05T18:38:32.058Z,17.50
2017-06-05T18:41:02.573Z,17.50
2017-06-05T18:43:32.589Z,17.50
2017-06-05T18:46:03.796Z,17.50
2017-06-05T18:48:34.442Z,17.50
2017-06-05T18:51:05.902Z,17.50
2017-06-05T18:53:36.407Z,17.50
2017-06-05T18:56:06.510Z,17.60
2017-06-05T18:58:37.856Z,17.60
2017-06-05T19:01:08.265Z,17.60
2017-06-05T19:03:39.054Z,17.60
2017-06-05T19:06:09.323Z,17.70
2017-06-05T19:08:40.060Z,17.70
2017-06-05T19:11:10.985Z,17.70
2017-06-05T19:13:41.502Z,17.60
2017-06-05T19:16:11.997Z,17.60
2017-06-05T19:18:43.671Z,17.50
2017-06-05T19:21:14.338Z,17.40
2017-06-05T19:23:44.987Z,17.40
2017-06-05T19:26:15.775Z,17.30
2017-06-05T19:28:45.735Z,17.30
2017-06-05T19:31:17.981Z,17.30
2017-06-05T19:33:48.962Z,17.30
2017-06-05T19:36:19.909Z,17.30
2017-06-05T19:38:50.395Z,17.30
2017-06-05T19:41:21.071Z,17.30
2017-06-05T19:43:53.347Z,17.30
2017-06-05T19:46:24.069Z,17.30
2017-06-05T19:48:54.301Z,17.30
2017-06-05T19:51:24.847Z,17.20
2017-06-05T19:53:56.080Z,17.30
2017-06-05T19:56:26.847Z,17.20
2017-06-05T19:58:56.931Z,17.30
2017-06-05T20:01:27.183Z,17.20
2017-06-05T20:03:57.384Z,17.20
2017-06-05T20:06:27.802Z,17.20
2017-06-05T20:08:58.568Z,17.20
2017-06-05T20:11:29.012Z,17.20
2017-06-05T20:13:58.955Z,17.20
2017-06-05T20:16:29.843Z,17.10
2017-06-05T20:18:59.848Z,17.10
2017-06-05T20:21:29.106Z,17.10
2017-06-05T20:23:59.755Z,17.10
2017-06-05T20:26:29.689Z,17.10
2017-06-05T20:29:00.208Z,17.10
2017-06-05T20:31:29.240Z,17.10
2017-06-05T20:33:59.269Z,17.10
2017-06-05T20:36:29.038Z,17.10
2017-06-05T20:38:59.336Z,17.00
2017-06-05T20:41:30.254Z,16.90
2017-06-05T20:43:59.675Z,16.90
2017-06-05T20:46:29.890Z,16.80
2017-06-05T20:48:59.734Z,16.80
2017-06-05T20:51:30.217Z,16.70
2017-06-05T20:54:00.579Z,16.80
2017-06-05T20:56:30.900Z,16.80
2017-06-05T20:59:02.581Z,16.90
2017-06-05T21:01:32.659Z,16.90
2017-06-05T21:04:00.790Z,16.80
2017-06-05T21:06:29.133Z,16.80
2017-06-05T21:08:56.654Z,16.70
2017-06-05T21:11:24.167Z,16.70
2017-06-05T21:13:51.748Z,16.60
2017-06-05T21:16:19.335Z,16.60
2017-06-05T21:18:46.898Z,16.50
2017-06-05T21:21:14.448Z,16.50
2017-06-05T21:23:41.960Z,16.40
2017-06-05T21:26:09.523Z,16.40
2017-06-05T21:28:37.043Z,16.40
2017-06-05T21:31:05.816Z,16.40
2017-06-05T21:33:33.340Z,16.40
2017-06-05T21:36:00.920Z,16.40
2017-06-05T21:38:28.479Z,16.50
2017-06-05T21:40:56.792Z,16.50
2017-06-05T21:43:24.307Z,16.50
2017-06-05T21:45:51.831Z,16.60
2017-06-05T21:48:19.335Z,16.60
2017-06-05T21:50:47.628Z,16.60
2017-06-05T21:53:15.160Z,16.60
2017-06-05T21:55:42.771Z,16.60
2017-06-05T21:58:10.314Z,16.60
2017-06-05T22:00:37.850Z,16.60
2017-06-05T22:03:05.390Z,16.70
2017-06-05T22:05:32.950Z,16.60
2017-06-05T22:08:00.472Z,16.60
2017-06-05T22:10:28.049Z,16.60
2017-06-05T22:12:55.554Z,16.60
2017-06-05T22:15:23.075Z,16.70
2017-06-05T22:17:50.584Z,16.70
2017-06-05T22:20:18.094Z,16.70
2017-06-05T22:22:45.620Z,16.70
2017-06-05T22:25:13.169Z,16.70
2017-06-05T22:27:40.693Z,16.70
2017-06-05T22:30:08.975Z,16.70
2017-06-05T22:32:37.270Z,16.70
2017-06-05T22:35:04.800Z,16.70
2017-06-05T22:37:32.334Z,16.70
2017-06-05T22:39:59.964Z,16.80
2017-06-05T22:42:27.459Z,16.80
2017-06-05T22:44:54.971Z,16.80
2017-06-05T22:47:22.499Z,16.80
2017-06-05T22:49:50.032Z,16.90
2017-06-05T22:52:17.529Z,16.90
2017-06-05T22:54:45.795Z,16.80
2017-06-05T22:57:13.317Z,16.80
2017-06-05T22:59:40.879Z,16.80
2017-06-05T23:02:08.383Z,16.80
2017-06-05T23:04:36.651Z,16.80
2017-06-05T23:07:04.170Z,16.80
2017-06-05T23:09:31.676Z,16.90
2017-06-05T23:11:59.188Z,16.90
2017-06-05T23:14:26.700Z,16.90
2017-06-05T23:16:54.974Z,16.80
2017-06-05T23:19:23.257Z,16.90
2017-06-05T23:21:51.536Z,16.80
2017-06-05T23:24:19.085Z,16.80
2017-06-05T23:26:46.589Z,16.80
2017-06-05T23:29:14.122Z,16.80
2017-06-05T23:31:42.413Z,16.70
2017-06-05T23:34:09.946Z,16.70
2017-06-05T23:36:37.475Z,16.70
2017-06-05T23:39:04.975Z,16.80
2017-06-05T23:41:32.484Z,16.80
2017-06-05T23:43:59.998Z,16.80
2017-06-05T23:46:27.527Z,16.70
2017-06-05T23:48:55.051Z,16.70
2017-06-05T23:51:22.568Z,16.80
2017-06-05T23:53:50.070Z,16.80
2017-06-05T23:56:17.635Z,16.90
2017-06-05T23:58:45.151Z,16.80
